sensor_id;sensor_type;location;lat;lon;timestamp;pressure;altitude;pressure_sealevel;temperature
54306;BMP280;50434;45.188;5.712;2022-08-11T00:00:04;99413.75;;;28.03
54306;BMP280;50434;45.188;5.712;2022-08-11T00:02:35;99408.22;;;28.05
54306;BMP280;50434;45.188;5.712;2022-08-11T00:05:10;99405.25;;;28.01
54306;BMP280;50434;45.188;5.712;2022-08-11T00:07:51;99415.22;;;27.87
54306;BMP280;50434;45.188;5.712;2022-08-11T00:10:21;99407.38;;;27.83
54306;BMP280;50434;45.188;5.712;2022-08-11T00:12:54;99412.41;;;27.87
54306;BMP280;50434;45.188;5.712;2022-08-11T00:15:24;99415.09;;;27.85
54306;BMP280;50434;45.188;5.712;2022-08-11T00:17:56;99413.69;;;27.84
54306;BMP280;50434;45.188;5.712;2022-08-11T00:20:32;99416.56;;;27.86
54306;BMP280;50434;45.188;5.712;2022-08-11T00:23:06;99418.56;;;27.83
54306;BMP280;50434;45.188;5.712;2022-08-11T00:25:41;99418.41;;;27.79
54306;BMP280;50434;45.188;5.712;2022-08-11T00:30:52;99419.44;;;27.70
54306;BMP280;50434;45.188;5.712;2022-08-11T00:33:22;99421.47;;;27.67
54306;BMP280;50434;45.188;5.712;2022-08-11T00:35:50;99417.19;;;27.66
54306;BMP280;50434;45.188;5.712;2022-08-11T00:38:17;99425.06;;;27.70
54306;BMP280;50434;45.188;5.712;2022-08-11T00:41:06;99425.59;;;27.66
54306;BMP280;50434;45.188;5.712;2022-08-11T00:46:13;99427.84;;;27.70
54306;BMP280;50434;45.188;5.712;2022-08-11T00:52:04;99438.28;;;27.67
54306;BMP280;50434;45.188;5.712;2022-08-11T00:54:59;99445.06;;;27.62
54306;BMP280;50434;45.188;5.712;2022-08-11T01:01:07;99444.66;;;27.52
54306;BMP280;50434;45.188;5.712;2022-08-11T01:04:07;99446.97;;;27.40
54306;BMP280;50434;45.188;5.712;2022-08-11T01:09:30;99447.81;;;27.27
54306;BMP280;50434;45.188;5.712;2022-08-11T01:12:20;99436.88;;;27.18
54306;BMP280;50434;45.188;5.712;2022-08-11T01:39:31;99448.56;;;27.12
54306;BMP280;50434;45.188;5.712;2022-08-11T01:48:05;99455.25;;;27.05
54306;BMP280;50434;45.188;5.712;2022-08-11T01:53:44;99452.53;;;27.07
54306;BMP280;50434;45.188;5.712;2022-08-11T02:01:51;99450.47;;;26.92
54306;BMP280;50434;45.188;5.712;2022-08-11T02:07:26;99448.50;;;26.79
54306;BMP280;50434;45.188;5.712;2022-08-11T02:10:29;99456.09;;;26.77
54306;BMP280;50434;45.188;5.712;2022-08-11T02:13:24;99443.44;;;26.76
54306;BMP280;50434;45.188;5.712;2022-08-11T02:16:11;99447.59;;;26.75
54306;BMP280;50434;45.188;5.712;2022-08-11T02:18:41;99442.53;;;26.71
54306;BMP280;50434;45.188;5.712;2022-08-11T02:21:40;99447.34;;;26.69
54306;BMP280;50434;45.188;5.712;2022-08-11T02:24:33;99447.78;;;26.63
54306;BMP280;50434;45.188;5.712;2022-08-11T02:27:05;99445.81;;;26.66
54306;BMP280;50434;45.188;5.712;2022-08-11T02:29:41;99451.94;;;26.62
54306;BMP280;50434;45.188;5.712;2022-08-11T02:32:19;99455.28;;;26.59
54306;BMP280;50434;45.188;5.712;2022-08-11T02:38:15;99449.47;;;26.39
54306;BMP280;50434;45.188;5.712;2022-08-11T02:40:51;99450.75;;;26.36
54306;BMP280;50434;45.188;5.712;2022-08-11T02:43:28;99446.28;;;26.31
54306;BMP280;50434;45.188;5.712;2022-08-11T02:46:18;99449.06;;;26.31
54306;BMP280;50434;45.188;5.712;2022-08-11T02:48:52;99449.06;;;26.31
54306;BMP280;50434;45.188;5.712;2022-08-11T02:57:01;99438.63;;;26.32
54306;BMP280;50434;45.188;5.712;2022-08-11T02:59:52;99438.63;;;26.32
54306;BMP280;50434;45.188;5.712;2022-08-11T03:05:02;99443.69;;;26.35
54306;BMP280;50434;45.188;5.712;2022-08-11T03:10:43;99450.53;;;26.32
54306;BMP280;50434;45.188;5.712;2022-08-11T03:13:40;99445.94;;;26.23
54306;BMP280;50434;45.188;5.712;2022-08-11T03:16:31;99448.72;;;26.23
54306;BMP280;50434;45.188;5.712;2022-08-11T03:22:24;99447.00;;;26.16
54306;BMP280;50434;45.188;5.712;2022-08-11T03:25:14;99448.34;;;26.15
54306;BMP280;50434;45.188;5.712;2022-08-11T03:27:49;99448.59;;;26.05
54306;BMP280;50434;45.188;5.712;2022-08-11T03:30:18;99457.69;;;26.06
54306;BMP280;50434;45.188;5.712;2022-08-11T03:38:23;99440.72;;;26.02
54306;BMP280;50434;45.188;5.712;2022-08-11T03:41:10;99445.41;;;25.97
54306;BMP280;50434;45.188;5.712;2022-08-11T03:52:12;99447.94;;;25.78
54306;BMP280;50434;45.188;5.712;2022-08-11T03:54:53;99451.91;;;25.73
54306;BMP280;50434;45.188;5.712;2022-08-11T03:57:44;99461.63;;;25.72
54306;BMP280;50434;45.188;5.712;2022-08-11T04:16:38;99475.50;;;25.70
54306;BMP280;50434;45.188;5.712;2022-08-11T04:22:12;99478.41;;;25.58
54306;BMP280;50434;45.188;5.712;2022-08-11T04:35:49;99489.47;;;25.56
54306;BMP280;50434;45.188;5.712;2022-08-11T04:53:13;99498.06;;;25.47
54306;BMP280;50434;45.188;5.712;2022-08-11T05:13:01;99513.78;;;25.13
54306;BMP280;50434;45.188;5.712;2022-08-11T05:15:48;99519.97;;;25.12
54306;BMP280;50434;45.188;5.712;2022-08-11T05:18:34;99521.22;;;25.09
54306;BMP280;50434;45.188;5.712;2022-08-11T05:21:23;99519.13;;;25.09
54306;BMP280;50434;45.188;5.712;2022-08-11T05:27:16;99530.91;;;25.08
54306;BMP280;50434;45.188;5.712;2022-08-11T05:30:07;99533.19;;;25.11
54306;BMP280;50434;45.188;5.712;2022-08-11T05:33:55;99534.03;;;25.14
54306;BMP280;50434;45.188;5.712;2022-08-11T05:38:57;99528.97;;;25.10
54306;BMP280;50434;45.188;5.712;2022-08-11T05:41:41;99528.47;;;25.14
54306;BMP280;50434;45.188;5.712;2022-08-11T05:44:26;99525.03;;;25.15
54306;BMP280;50434;45.188;5.712;2022-08-11T05:47:22;99528.47;;;25.14
54306;BMP280;50434;45.188;5.712;2022-08-11T05:50:11;99525.56;;;25.12
54306;BMP280;50434;45.188;5.712;2022-08-11T05:52:56;99522.66;;;25.10
54306;BMP280;50434;45.188;5.712;2022-08-11T05:55:42;99536.06;;;25.00
54306;BMP280;50434;45.188;5.712;2022-08-11T05:58:36;99536.84;;;24.88
54306;BMP280;50434;45.188;5.712;2022-08-11T06:01:03;99531.63;;;24.94
54306;BMP280;50434;45.188;5.712;2022-08-11T06:03:31;99532.34;;;24.95
54306;BMP280;50434;45.188;5.712;2022-08-11T06:05:57;99533.91;;;24.98
54306;BMP280;50434;45.188;5.712;2022-08-11T06:08:31;99530.25;;;24.95
54306;BMP280;50434;45.188;5.712;2022-08-11T06:11:03;99531.41;;;25.04
54306;BMP280;50434;45.188;5.712;2022-08-11T06:13:30;99531.41;;;25.04
54306;BMP280;50434;45.188;5.712;2022-08-11T06:15:57;99534.31;;;25.06
54306;BMP280;50434;45.188;5.712;2022-08-11T06:18:23;99536.38;;;25.06
54306;BMP280;50434;45.188;5.712;2022-08-11T06:20:52;99528.00;;;25.06
54306;BMP280;50434;45.188;5.712;2022-08-11T06:23:23;99535.06;;;25.07
54306;BMP280;50434;45.188;5.712;2022-08-11T06:25:55;99529.88;;;25.01
54306;BMP280;50434;45.188;5.712;2022-08-11T06:28:31;99525.63;;;25.00
54306;BMP280;50434;45.188;5.712;2022-08-11T06:30:58;99526.97;;;24.99
54306;BMP280;50434;45.188;5.712;2022-08-11T06:33:34;99530.22;;;25.07
54306;BMP280;50434;45.188;5.712;2022-08-11T06:41:01;99522.88;;;25.14
54306;BMP280;50434;45.188;5.712;2022-08-11T06:46:28;99518.22;;;25.18
54306;BMP280;50434;45.188;5.712;2022-08-11T06:48:55;99518.44;;;25.22
54306;BMP280;50434;45.188;5.712;2022-08-11T06:51:21;99521.31;;;25.24
54306;BMP280;50434;45.188;5.712;2022-08-11T06:53:53;99513.78;;;25.27
54306;BMP280;50434;45.188;5.712;2022-08-11T06:56:27;99518.44;;;25.36
54306;BMP280;50434;45.188;5.712;2022-08-11T06:59:14;99517.41;;;25.43
54306;BMP280;50434;45.188;5.712;2022-08-11T07:10:13;99516.47;;;25.52
54306;BMP280;50434;45.188;5.712;2022-08-11T07:13:01;99513.56;;;25.50
54306;BMP280;50434;45.188;5.712;2022-08-11T07:15:47;99511.63;;;25.52
54306;BMP280;50434;45.188;5.712;2022-08-11T07:18:22;99521.56;;;25.55
54306;BMP280;50434;45.188;5.712;2022-08-11T07:21:11;99510.56;;;25.59
54306;BMP280;50434;45.188;5.712;2022-08-11T07:23:55;99510.88;;;25.65
54306;BMP280;50434;45.188;5.712;2022-08-11T07:26:44;99502.69;;;25.69
54306;BMP280;50434;45.188;5.712;2022-08-11T07:29:31;99499.50;;;25.75
54306;BMP280;50434;45.188;5.712;2022-08-11T07:32:01;99500.94;;;25.76
54306;BMP280;50434;45.188;5.712;2022-08-11T07:34:33;99506.72;;;25.80
54306;BMP280;50434;45.188;5.712;2022-08-11T07:37:03;99502.06;;;25.84
54306;BMP280;50434;45.188;5.712;2022-08-11T07:39:35;99497.50;;;25.91
54306;BMP280;50434;45.188;5.712;2022-08-11T07:42:06;99501.00;;;25.91
54306;BMP280;50434;45.188;5.712;2022-08-11T07:44:33;99488.06;;;25.98
54306;BMP280;50434;45.188;5.712;2022-08-11T07:47:19;99488.66;;;26.10
54306;BMP280;50434;45.188;5.712;2022-08-11T07:50:05;99487.38;;;26.13
54306;BMP280;50434;45.188;5.712;2022-08-11T07:52:51;99493.38;;;26.21
54306;BMP280;50434;45.188;5.712;2022-08-11T07:55:20;99478.16;;;26.24
54306;BMP280;50434;45.188;5.712;2022-08-11T07:57:46;99471.97;;;26.27
54306;BMP280;50434;45.188;5.712;2022-08-11T08:00:52;99479.44;;;26.37
54306;BMP280;50434;45.188;5.712;2022-08-11T08:03:37;99480.44;;;26.43
54306;BMP280;50434;45.188;5.712;2022-08-11T08:06:22;99471.06;;;26.52
54306;BMP280;50434;45.188;5.712;2022-08-11T08:09:07;99474.13;;;26.58
54306;BMP280;50434;45.188;5.712;2022-08-11T08:11:52;99467.88;;;26.60
54306;BMP280;50434;45.188;5.712;2022-08-11T08:14:36;99468.72;;;26.62
54306;BMP280;50434;45.188;5.712;2022-08-11T08:17:21;99471.78;;;26.68
54306;BMP280;50434;45.188;5.712;2022-08-11T08:20:09;99458.63;;;26.71
54306;BMP280;50434;45.188;5.712;2022-08-11T08:22:35;99450.50;;;26.77
54306;BMP280;50434;45.188;5.712;2022-08-11T08:25:01;99452.91;;;26.84
54306;BMP280;50434;45.188;5.712;2022-08-11T08:27:28;99456.72;;;26.91
54306;BMP280;50434;45.188;5.712;2022-08-11T08:29:54;99446.53;;;26.97
54306;BMP280;50434;45.188;5.712;2022-08-11T08:32:42;99446.59;;;26.99
54306;BMP280;50434;45.188;5.712;2022-08-11T08:35:10;99444.72;;;27.04
54306;BMP280;50434;45.188;5.712;2022-08-11T08:37:36;99447.03;;;27.09
54306;BMP280;50434;45.188;5.712;2022-08-11T08:40:02;99444.47;;;27.15
54306;BMP280;50434;45.188;5.712;2022-08-11T08:42:30;99447.63;;;27.23
54306;BMP280;50434;45.188;5.712;2022-08-11T08:45:10;99438.03;;;27.28
54306;BMP280;50434;45.188;5.712;2022-08-11T08:48:00;99436.84;;;27.33
54306;BMP280;50434;45.188;5.712;2022-08-11T08:50:32;99441.38;;;27.40
54306;BMP280;50434;45.188;5.712;2022-08-11T08:53:21;99431.19;;;27.49
54306;BMP280;50434;45.188;5.712;2022-08-11T08:55:49;99425.59;;;27.49
54306;BMP280;50434;45.188;5.712;2022-08-11T08:58:18;99423.56;;;27.51
54306;BMP280;50434;45.188;5.712;2022-08-11T09:00:46;99423.03;;;27.55
54306;BMP280;50434;45.188;5.712;2022-08-11T09:03:15;99422.56;;;27.60
54306;BMP280;50434;45.188;5.712;2022-08-11T09:05:41;99415.75;;;27.65
54306;BMP280;50434;45.188;5.712;2022-08-11T09:08:07;99410.47;;;27.74
54306;BMP280;50434;45.188;5.712;2022-08-11T09:10:33;99411.44;;;27.80
54306;BMP280;50434;45.188;5.712;2022-08-11T09:12:59;99403.88;;;27.85
54306;BMP280;50434;45.188;5.712;2022-08-11T09:15:28;99404.16;;;27.91
54306;BMP280;50434;45.188;5.712;2022-08-11T09:17:56;99395.19;;;27.94
54306;BMP280;50434;45.188;5.712;2022-08-11T09:20:29;99399.50;;;27.97
54306;BMP280;50434;45.188;5.712;2022-08-11T09:23:04;99395.47;;;28.02
54306;BMP280;50434;45.188;5.712;2022-08-11T09:25:52;99383.84;;;28.10
54306;BMP280;50434;45.188;5.712;2022-08-11T09:28:36;99385.59;;;28.19
54306;BMP280;50434;45.188;5.712;2022-08-11T09:31:04;99384.47;;;28.26
54306;BMP280;50434;45.188;5.712;2022-08-11T09:33:30;99379.16;;;28.34
54306;BMP280;50434;45.188;5.712;2022-08-11T09:35:57;99376.56;;;28.40
54306;BMP280;50434;45.188;5.712;2022-08-11T09:38:44;99369.84;;;28.49
54306;BMP280;50434;45.188;5.712;2022-08-11T09:41:31;99361.88;;;28.61
54306;BMP280;50434;45.188;5.712;2022-08-11T09:43:58;99363.59;;;28.70
54306;BMP280;50434;45.188;5.712;2022-08-11T09:46:43;99361.78;;;28.78
54306;BMP280;50434;45.188;5.712;2022-08-11T09:49:09;99352.91;;;28.86
54306;BMP280;50434;45.188;5.712;2022-08-11T09:51:35;99347.44;;;28.90
54306;BMP280;50434;45.188;5.712;2022-08-11T09:54:02;99343.47;;;28.97
54306;BMP280;50434;45.188;5.712;2022-08-11T09:56:31;99341.56;;;29.03
54306;BMP280;50434;45.188;5.712;2022-08-11T09:59:17;99341.84;;;29.11
54306;BMP280;50434;45.188;5.712;2022-08-11T10:01:48;99339.81;;;29.14
54306;BMP280;50434;45.188;5.712;2022-08-11T10:04:23;99340.00;;;29.20
54306;BMP280;50434;45.188;5.712;2022-08-11T10:06:52;99336.03;;;29.27
54306;BMP280;50434;45.188;5.712;2022-08-11T10:09:55;99321.00;;;29.40
54306;BMP280;50434;45.188;5.712;2022-08-11T10:12:33;99325.34;;;29.45
54306;BMP280;50434;45.188;5.712;2022-08-11T10:15:15;99315.81;;;29.54
54306;BMP280;50434;45.188;5.712;2022-08-11T10:20:49;99303.06;;;29.75
54306;BMP280;50434;45.188;5.712;2022-08-11T10:23:16;99302.63;;;29.84
54306;BMP280;50434;45.188;5.712;2022-08-11T10:26:01;99297.25;;;29.92
54306;BMP280;50434;45.188;5.712;2022-08-11T10:28:46;99303.19;;;30.04
54306;BMP280;50434;45.188;5.712;2022-08-11T10:31:12;99292.13;;;30.10
54306;BMP280;50434;45.188;5.712;2022-08-11T10:33:57;99294.41;;;30.18
54306;BMP280;50434;45.188;5.712;2022-08-11T10:36:40;99291.78;;;30.24
54306;BMP280;50434;45.188;5.712;2022-08-11T10:39:19;99288.47;;;30.31
54306;BMP280;50434;45.188;5.712;2022-08-11T10:41:45;99287.19;;;30.36
54306;BMP280;50434;45.188;5.712;2022-08-11T10:44:42;99278.16;;;30.40
54306;BMP280;50434;45.188;5.712;2022-08-11T10:47:11;99269.81;;;30.44
54306;BMP280;50434;45.188;5.712;2022-08-11T10:49:55;99268.63;;;30.53
54306;BMP280;50434;45.188;5.712;2022-08-11T10:52:40;99262.56;;;30.64
54306;BMP280;50434;45.188;5.712;2022-08-11T10:55:25;99259.38;;;30.78
54306;BMP280;50434;45.188;5.712;2022-08-11T10:58:09;99258.13;;;30.85
54306;BMP280;50434;45.188;5.712;2022-08-11T11:00:54;99251.84;;;30.86
54306;BMP280;50434;45.188;5.712;2022-08-11T11:03:28;99244.22;;;30.91
54306;BMP280;50434;45.188;5.712;2022-08-11T11:06:05;99241.44;;;30.93
54306;BMP280;50434;45.188;5.712;2022-08-11T11:08:38;99239.44;;;30.97
54306;BMP280;50434;45.188;5.712;2022-08-11T11:11:20;99236.75;;;31.03
54306;BMP280;50434;45.188;5.712;2022-08-11T11:13:50;99240.41;;;31.10
54306;BMP280;50434;45.188;5.712;2022-08-11T11:16:35;99229.91;;;31.14
54306;BMP280;50434;45.188;5.712;2022-08-11T11:19:22;99230.09;;;31.23
54306;BMP280;50434;45.188;5.712;2022-08-11T11:21:53;99222.50;;;31.29
54306;BMP280;50434;45.188;5.712;2022-08-11T11:24:24;99221.34;;;31.40
54306;BMP280;50434;45.188;5.712;2022-08-11T11:27:22;99222.88;;;31.47
54306;BMP280;50434;45.188;5.712;2022-08-11T11:30:04;99220.13;;;31.49
54306;BMP280;50434;45.188;5.712;2022-08-11T11:32:40;99211.22;;;31.63
54306;BMP280;50434;45.188;5.712;2022-08-11T11:37:41;99211.75;;;31.91
54306;BMP280;50434;45.188;5.712;2022-08-11T11:40:10;99199.16;;;31.98
54306;BMP280;50434;45.188;5.712;2022-08-11T11:42:37;99203.53;;;32.05
54306;BMP280;50434;45.188;5.712;2022-08-11T11:45:04;99192.31;;;32.09
54306;BMP280;50434;45.188;5.712;2022-08-11T11:47:31;99188.84;;;32.12
54306;BMP280;50434;45.188;5.712;2022-08-11T11:49:58;99184.81;;;32.23
54306;BMP280;50434;45.188;5.712;2022-08-11T11:52:24;99177.25;;;32.36
54306;BMP280;50434;45.188;5.712;2022-08-11T11:54:54;99176.66;;;32.43
54306;BMP280;50434;45.188;5.712;2022-08-11T11:57:21;99177.38;;;32.44
54306;BMP280;50434;45.188;5.712;2022-08-11T12:00:07;99181.88;;;32.61
54306;BMP280;50434;45.188;5.712;2022-08-11T12:02:54;99181.88;;;32.63
54306;BMP280;50434;45.188;5.712;2022-08-11T12:05:20;99172.72;;;32.64
54306;BMP280;50434;45.188;5.712;2022-08-11T12:07:46;99163.63;;;32.70
54306;BMP280;50434;45.188;5.712;2022-08-11T12:10:31;99163.69;;;32.76
54306;BMP280;50434;45.188;5.712;2022-08-11T12:13:00;99152.41;;;32.74
54306;BMP280;50434;45.188;5.712;2022-08-11T12:15:46;99155.94;;;32.76
54306;BMP280;50434;45.188;5.712;2022-08-11T12:18:13;99151.06;;;32.81
54306;BMP280;50434;45.188;5.712;2022-08-11T12:20:39;99157.50;;;32.85
54306;BMP280;50434;45.188;5.712;2022-08-11T12:23:05;99156.16;;;32.94
54306;BMP280;50434;45.188;5.712;2022-08-11T12:25:49;99144.22;;;32.96
54306;BMP280;50434;45.188;5.712;2022-08-11T12:28:34;99149.91;;;33.00
54306;BMP280;50434;45.188;5.712;2022-08-11T12:30:59;99144.25;;;33.02
54306;BMP280;50434;45.188;5.712;2022-08-11T12:33:26;99130.97;;;33.10
54306;BMP280;50434;45.188;5.712;2022-08-11T12:35:57;99136.00;;;33.20
54306;BMP280;50434;45.188;5.712;2022-08-11T12:38:23;99130.47;;;33.30
54306;BMP280;50434;45.188;5.712;2022-08-11T12:40:50;99120.59;;;33.33
54306;BMP280;50434;45.188;5.712;2022-08-11T12:43:35;99126.91;;;33.28
54306;BMP280;50434;45.188;5.712;2022-08-11T12:46:28;99120.69;;;33.39
54306;BMP280;50434;45.188;5.712;2022-08-11T12:48:57;99115.13;;;33.49
54306;BMP280;50434;45.188;5.712;2022-08-11T12:51:50;99110.19;;;33.52
54306;BMP280;50434;45.188;5.712;2022-08-11T12:54:34;99102.41;;;33.50
54306;BMP280;50434;45.188;5.712;2022-08-11T12:57:09;99105.25;;;33.52
54306;BMP280;50434;45.188;5.712;2022-08-11T12:59:56;99098.25;;;33.57
54306;BMP280;50434;45.188;5.712;2022-08-11T13:02:40;99093.97;;;33.56
54306;BMP280;50434;45.188;5.712;2022-08-11T13:05:24;99096.06;;;33.54
54306;BMP280;50434;45.188;5.712;2022-08-11T13:07:51;99089.78;;;33.63
54306;BMP280;50434;45.188;5.712;2022-08-11T13:10:18;99081.38;;;33.75
54306;BMP280;50434;45.188;5.712;2022-08-11T13:13:06;99087.13;;;33.85
54306;BMP280;50434;45.188;5.712;2022-08-11T13:15:32;99077.25;;;33.88
54306;BMP280;50434;45.188;5.712;2022-08-11T13:17:58;99086.50;;;33.95
54306;BMP280;50434;45.188;5.712;2022-08-11T13:20:24;99067.44;;;33.99
54306;BMP280;50434;45.188;5.712;2022-08-11T13:22:53;99071.00;;;34.02
54306;BMP280;50434;45.188;5.712;2022-08-11T13:25:24;99078.78;;;34.05
54306;BMP280;50434;45.188;5.712;2022-08-11T13:27:53;99061.84;;;34.09
54306;BMP280;50434;45.188;5.712;2022-08-11T13:30:23;99056.22;;;34.13
54306;BMP280;50434;45.188;5.712;2022-08-11T13:33:08;99057.66;;;34.16
54306;BMP280;50434;45.188;5.712;2022-08-11T13:35:34;99062.66;;;34.24
54306;BMP280;50434;45.188;5.712;2022-08-11T13:38:01;99045.63;;;34.22
54306;BMP280;50434;45.188;5.712;2022-08-11T13:40:28;99052.03;;;34.28
54306;BMP280;50434;45.188;5.712;2022-08-11T13:42:55;99053.47;;;34.29
54306;BMP280;50434;45.188;5.712;2022-08-11T13:45:23;99043.56;;;34.30
54306;BMP280;50434;45.188;5.712;2022-08-11T13:47:53;99037.22;;;34.34
54306;BMP280;50434;45.188;5.712;2022-08-11T13:50:20;99039.38;;;34.39
54306;BMP280;50434;45.188;5.712;2022-08-11T13:53:07;99039.38;;;34.43
54306;BMP280;50434;45.188;5.712;2022-08-11T13:55:34;99031.59;;;34.46
54306;BMP280;50434;45.188;5.712;2022-08-11T13:57:59;99026.66;;;34.48
54306;BMP280;50434;45.188;5.712;2022-08-11T14:00:28;99030.22;;;34.51
54306;BMP280;50434;45.188;5.712;2022-08-11T14:02:56;99021.00;;;34.50
54306;BMP280;50434;45.188;5.712;2022-08-11T14:05:27;99016.03;;;34.55
54306;BMP280;50434;45.188;5.712;2022-08-11T14:08:00;99017.53;;;34.64
54306;BMP280;50434;45.188;5.712;2022-08-11T14:10:30;99021.06;;;34.66
54306;BMP280;50434;45.188;5.712;2022-08-11T14:13:06;99015.34;;;34.64
54306;BMP280;50434;45.188;5.712;2022-08-11T14:15:52;99015.34;;;34.64
54306;BMP280;50434;45.188;5.712;2022-08-11T14:18:21;99018.22;;;34.66
54306;BMP280;50434;45.188;5.712;2022-08-11T14:20:51;99006.19;;;34.70
54306;BMP280;50434;45.188;5.712;2022-08-11T14:23:42;99009.00;;;34.72
54306;BMP280;50434;45.188;5.712;2022-08-11T14:26:09;99014.69;;;34.70
54306;BMP280;50434;45.188;5.712;2022-08-11T14:31:35;99009.03;;;34.76
54306;BMP280;50434;45.188;5.712;2022-08-11T14:34:03;99012.56;;;34.76
54306;BMP280;50434;45.188;5.712;2022-08-11T14:36:34;99006.19;;;34.74
54306;BMP280;50434;45.188;5.712;2022-08-11T14:39:04;99002.66;;;34.73
54306;BMP280;50434;45.188;5.712;2022-08-11T14:41:31;99006.88;;;34.74
54306;BMP280;50434;45.188;5.712;2022-08-11T14:44:15;99009.00;;;34.72
54306;BMP280;50434;45.188;5.712;2022-08-11T14:47:12;99004.09;;;34.78
54306;BMP280;50434;45.188;5.712;2022-08-11T14:49:41;98997.00;;;34.79
54306;BMP280;50434;45.188;5.712;2022-08-11T14:52:09;98994.19;;;34.85
54306;BMP280;50434;45.188;5.712;2022-08-11T14:54:36;98990.63;;;34.87
54306;BMP280;50434;45.188;5.712;2022-08-11T14:57:21;98992.75;;;34.86
54306;BMP280;50434;45.188;5.712;2022-08-11T14:59:49;98988.53;;;34.83
54306;BMP280;50434;45.188;5.712;2022-08-11T15:02:17;98984.28;;;34.80
54306;BMP280;50434;45.188;5.712;2022-08-11T15:05:03;98981.41;;;34.84
54306;BMP280;50434;45.188;5.712;2022-08-11T15:07:31;98974.34;;;34.83
54306;BMP280;50434;45.188;5.712;2022-08-11T15:09:58;98975.06;;;34.88
54306;BMP280;50434;45.188;5.712;2022-08-11T15:12:24;98965.84;;;34.83
54306;BMP280;50434;45.188;5.712;2022-08-11T15:14:50;98965.84;;;34.83
54306;BMP280;50434;45.188;5.712;2022-08-11T15:17:35;98963.72;;;34.80
54306;BMP280;50434;45.188;5.712;2022-08-11T15:20:07;98967.25;;;34.84
54306;BMP280;50434;45.188;5.712;2022-08-11T15:22:52;98960.19;;;34.87
54306;BMP280;50434;45.188;5.712;2022-08-11T15:25:37;98963.72;;;34.88
54306;BMP280;50434;45.188;5.712;2022-08-11T15:28:06;98962.28;;;34.85
54306;BMP280;50434;45.188;5.712;2022-08-11T15:30:53;98966.53;;;34.82
54306;BMP280;50434;45.188;5.712;2022-08-11T15:33:40;98954.47;;;34.81
54306;BMP280;50434;45.188;5.712;2022-08-11T15:36:26;98958.75;;;34.78
54306;BMP280;50434;45.188;5.712;2022-08-11T15:39:22;98954.50;;;34.79
54306;BMP280;50434;45.188;5.712;2022-08-11T15:41:58;98958.03;;;34.82
54306;BMP280;50434;45.188;5.712;2022-08-11T15:44:47;98951.69;;;34.83
54306;BMP280;50434;45.188;5.712;2022-08-11T15:47:54;98955.22;;;34.86
54306;BMP280;50434;45.188;5.712;2022-08-11T15:50:26;98937.50;;;34.85
54306;BMP280;50434;45.188;5.712;2022-08-11T15:52:59;98940.34;;;34.83
54306;BMP280;50434;45.188;5.712;2022-08-11T15:55:26;98944.59;;;34.86
54306;BMP280;50434;45.188;5.712;2022-08-11T15:57:54;98940.34;;;34.87
54306;BMP280;50434;45.188;5.712;2022-08-11T16:00:44;98938.22;;;34.86
54306;BMP280;50434;45.188;5.712;2022-08-11T16:03:31;98939.63;;;34.83
54306;BMP280;50434;45.188;5.712;2022-08-11T16:06:18;98943.16;;;34.81
54306;BMP280;50434;45.188;5.712;2022-08-11T16:08:46;98938.22;;;34.82
54306;BMP280;50434;45.188;5.712;2022-08-11T16:11:12;98932.53;;;34.82
54306;BMP280;50434;45.188;5.712;2022-08-11T16:13:39;98936.81;;;34.83
54306;BMP280;50434;45.188;5.712;2022-08-11T16:16:08;98928.28;;;34.79
54306;BMP280;50434;45.188;5.712;2022-08-11T16:18:45;98923.34;;;34.79
54306;BMP280;50434;45.188;5.712;2022-08-11T16:21:18;98924.75;;;34.78
54306;BMP280;50434;45.188;5.712;2022-08-11T16:23:46;98929.00;;;34.79
54306;BMP280;50434;45.188;5.712;2022-08-11T16:26:17;98922.63;;;34.75
54306;BMP280;50434;45.188;5.712;2022-08-11T16:28:44;98929.00;;;34.75
54306;BMP280;50434;45.188;5.712;2022-08-11T16:31:11;98924.72;;;34.74
54306;BMP280;50434;45.188;5.712;2022-08-11T16:33:41;98924.03;;;34.70
54306;BMP280;50434;45.188;5.712;2022-08-11T16:36:09;98924.75;;;34.70
54306;BMP280;50434;45.188;5.712;2022-08-11T16:38:54;98917.66;;;34.67
54306;BMP280;50434;45.188;5.712;2022-08-11T16:41:23;98921.19;;;34.68
54306;BMP280;50434;45.188;5.712;2022-08-11T16:44:13;98912.00;;;34.65
54306;BMP280;50434;45.188;5.712;2022-08-11T16:46:59;98914.09;;;34.65
54306;BMP280;50434;45.188;5.712;2022-08-11T16:49:43;98918.34;;;34.56
54306;BMP280;50434;45.188;5.712;2022-08-11T16:52:10;98912.69;;;34.60
54306;BMP280;50434;45.188;5.712;2022-08-11T16:54:38;98916.22;;;34.58
54306;BMP280;50434;45.188;5.712;2022-08-11T16:57:08;98909.88;;;34.54
54306;BMP280;50434;45.188;5.712;2022-08-11T16:59:53;98911.28;;;34.51
54306;BMP280;50434;45.188;5.712;2022-08-11T17:02:23;98911.25;;;34.49
54306;BMP280;50434;45.188;5.712;2022-08-11T17:05:11;98914.09;;;34.49
54306;BMP280;50434;45.188;5.712;2022-08-11T17:07:59;98910.56;;;34.46
54306;BMP280;50434;45.188;5.712;2022-08-11T17:10:49;98907.69;;;34.44
54306;BMP280;50434;45.188;5.712;2022-08-11T17:13:39;98919.72;;;34.39
54306;BMP280;50434;45.188;5.712;2022-08-11T17:16:10;98916.19;;;34.34
54306;BMP280;50434;45.188;5.712;2022-08-11T17:21:06;98915.44;;;34.26
54306;BMP280;50434;45.188;5.712;2022-08-11T17:23:34;98906.94;;;34.22
54306;BMP280;50434;45.188;5.712;2022-08-11T17:26:22;98910.44;;;34.18
54306;BMP280;50434;45.188;5.712;2022-08-11T17:28:51;98911.84;;;34.11
54306;BMP280;50434;45.188;5.712;2022-08-11T17:31:19;98909.00;;;34.03
54306;BMP280;50434;45.188;5.712;2022-08-11T17:34:08;98911.13;;;34.01
54306;BMP280;50434;45.188;5.712;2022-08-11T17:36:53;98915.31;;;33.96
54306;BMP280;50434;45.188;5.712;2022-08-11T17:39:23;98903.97;;;33.86
54306;BMP280;50434;45.188;5.712;2022-08-11T17:41:50;98913.91;;;33.91
54306;BMP280;50434;45.188;5.712;2022-08-11T17:44:36;98913.19;;;33.90
54306;BMP280;50434;45.188;5.712;2022-08-11T17:47:21;98917.44;;;33.87
54306;BMP280;50434;45.188;5.712;2022-08-11T17:50:06;98913.88;;;33.85
54306;BMP280;50434;45.188;5.712;2022-08-11T17:52:33;98923.03;;;33.81
54306;BMP280;50434;45.188;5.712;2022-08-11T17:55:19;98915.94;;;33.78
54306;BMP280;50434;45.188;5.712;2022-08-11T17:58:05;98922.97;;;33.71
54306;BMP280;50434;45.188;5.712;2022-08-11T18:00:50;98923.66;;;33.64
54306;BMP280;50434;45.188;5.712;2022-08-11T18:03:19;98927.19;;;33.62
54306;BMP280;50434;45.188;5.712;2022-08-11T18:05:59;98925.03;;;33.57